sensor_id;sensor_type;location;lat;lon;timestamp;P1;durP1;ratioP1;P2;durP2;ratioP2
70337;SDS011;57757;53.198;19.646;2022-07-23T00:00:31;14.80;;;8.80;;
70337;SDS011;57757;53.198;19.646;2022-07-23T00:03:06;12.40;;;8.50;;
70337;SDS011;57757;53.198;19.646;2022-07-23T00:05:34;14.50;;;8.40;;
70337;SDS011;57757;53.198;19.646;2022-07-23T00:08:04;13.20;;;8.30;;
70337;SDS011;57757;53.198;19.646;2022-07-23T00:10:40;14.50;;;8.40;;
70337;SDS011;57757;53.198;19.646;2022-07-23T00:13:08;14.20;;;8.30;;
70337;SDS011;57757;53.198;19.646;2022-07-23T00:15:35;13.40;;;8.20;;
70337;SDS011;57757;53.198;19.646;2022-07-23T00:18:03;14.60;;;8.40;;
70337;SDS011;57757;53.198;19.646;2022-07-23T00:20:30;12.80;;;8.10;;
70337;SDS011;57757;53.198;19.646;2022-07-23T00:22:58;13.50;;;7.80;;
70337;SDS011;57757;53.198;19.646;2022-07-23T00:25:26;12.20;;;7.90;;
70337;SDS011;57757;53.198;19.646;2022-07-23T00:27:57;13.50;;;8.10;;
70337;SDS011;57757;53.198;19.646;2022-07-23T00:30:26;15.00;;;8.40;;
70337;SDS011;57757;53.198;19.646;2022-07-23T00:32:57;12.60;;;7.90;;
70337;SDS011;57757;53.198;19.646;2022-07-23T00:35:27;12.90;;;8.30;;
70337;SDS011;57757;53.198;19.646;2022-07-23T00:37:57;14.50;;;8.60;;
70337;SDS011;57757;53.198;19.646;2022-07-23T00:40:25;13.20;;;8.40;;
70337;SDS011;57757;53.198;19.646;2022-07-23T00:42:54;13.60;;;8.70;;
70337;SDS011;57757;53.198;19.646;2022-07-23T00:45:21;14.10;;;8.70;;
70337;SDS011;57757;53.198;19.646;2022-07-23T00:47:49;15.40;;;8.80;;
70337;SDS011;57757;53.198;19.646;2022-07-23T00:50:19;13.10;;;8.40;;
70337;SDS011;57757;53.198;19.646;2022-07-23T00:52:46;13.30;;;8.80;;
70337;SDS011;57757;53.198;19.646;2022-07-23T00:55:14;13.70;;;8.90;;
70337;SDS011;57757;53.198;19.646;2022-07-23T00:57:42;13.60;;;8.90;;
70337;SDS011;57757;53.198;19.646;2022-07-23T01:00:10;15.60;;;9.50;;
70337;SDS011;57757;53.198;19.646;2022-07-23T01:02:39;16.40;;;10.20;;
70337;SDS011;57757;53.198;19.646;2022-07-23T01:05:08;14.50;;;9.40;;
70337;SDS011;57757;53.198;19.646;2022-07-23T01:07:36;14.10;;;9.20;;
70337;SDS011;57757;53.198;19.646;2022-07-23T01:10:04;14.60;;;9.00;;
70337;SDS011;57757;53.198;19.646;2022-07-23T01:12:53;13.90;;;8.60;;
70337;SDS011;57757;53.198;19.646;2022-07-23T01:15:21;15.50;;;8.70;;
70337;SDS011;57757;53.198;19.646;2022-07-23T01:17:49;15.60;;;9.50;;
70337;SDS011;57757;53.198;19.646;2022-07-23T01:20:16;14.60;;;8.70;;
70337;SDS011;57757;53.198;19.646;2022-07-23T01:22:44;14.50;;;8.90;;
70337;SDS011;57757;53.198;19.646;2022-07-23T01:25:12;17.60;;;10.00;;
70337;SDS011;57757;53.198;19.646;2022-07-23T01:27:40;15.40;;;10.00;;
70337;SDS011;57757;53.198;19.646;2022-07-23T01:30:08;13.60;;;9.00;;
70337;SDS011;57757;53.198;19.646;2022-07-23T01:32:35;15.40;;;9.30;;
70337;SDS011;57757;53.198;19.646;2022-07-23T01:35:04;16.30;;;8.90;;
70337;SDS011;57757;53.198;19.646;2022-07-23T01:37:35;14.80;;;9.30;;
70337;SDS011;57757;53.198;19.646;2022-07-23T01:40:03;14.50;;;9.10;;
70337;SDS011;57757;53.198;19.646;2022-07-23T01:42:32;16.30;;;9.20;;
70337;SDS011;57757;53.198;19.646;2022-07-23T01:45:01;13.80;;;9.00;;
70337;SDS011;57757;53.198;19.646;2022-07-23T01:47:30;14.20;;;9.20;;
70337;SDS011;57757;53.198;19.646;2022-07-23T01:49:57;14.70;;;9.10;;
70337;SDS011;57757;53.198;19.646;2022-07-23T01:52:25;14.40;;;8.80;;
70337;SDS011;57757;53.198;19.646;2022-07-23T01:54:52;14.20;;;9.00;;
70337;SDS011;57757;53.198;19.646;2022-07-23T01:57:20;13.60;;;9.30;;
70337;SDS011;57757;53.198;19.646;2022-07-23T01:59:48;14.20;;;9.60;;
70337;SDS011;57757;53.198;19.646;2022-07-23T02:02:15;14.60;;;9.20;;
70337;SDS011;57757;53.198;19.646;2022-07-23T02:04:43;17.00;;;9.80;;
70337;SDS011;57757;53.198;19.646;2022-07-23T02:07:10;14.10;;;9.50;;
70337;SDS011;57757;53.198;19.646;2022-07-23T02:09:38;15.00;;;9.80;;
70337;SDS011;57757;53.198;19.646;2022-07-23T02:12:05;14.50;;;8.60;;
70337;SDS011;57757;53.198;19.646;2022-07-23T02:14:33;15.40;;;8.70;;
70337;SDS011;57757;53.198;19.646;2022-07-23T02:17:00;14.90;;;9.70;;
70337;SDS011;57757;53.198;19.646;2022-07-23T02:19:28;16.00;;;10.20;;
70337;SDS011;57757;53.198;19.646;2022-07-23T02:21:56;14.60;;;9.00;;
70337;SDS011;57757;53.198;19.646;2022-07-23T02:24:23;14.50;;;9.90;;
70337;SDS011;57757;53.198;19.646;2022-07-23T02:26:51;15.60;;;10.00;;
70337;SDS011;57757;53.198;19.646;2022-07-23T02:29:18;16.60;;;10.00;;
70337;SDS011;57757;53.198;19.646;2022-07-23T02:31:45;17.80;;;9.80;;
70337;SDS011;57757;53.198;19.646;2022-07-23T02:34:14;13.70;;;9.40;;
70337;SDS011;57757;53.198;19.646;2022-07-23T02:36:41;13.70;;;9.70;;
70337;SDS011;57757;53.198;19.646;2022-07-23T02:39:09;15.90;;;10.00;;
70337;SDS011;57757;53.198;19.646;2022-07-23T02:41:36;17.60;;;9.70;;
70337;SDS011;57757;53.198;19.646;2022-07-23T02:44:04;14.70;;;10.00;;
70337;SDS011;57757;53.198;19.646;2022-07-23T02:46:31;15.60;;;10.30;;
70337;SDS011;57757;53.198;19.646;2022-07-23T02:48:59;15.10;;;9.90;;
70337;SDS011;57757;53.198;19.646;2022-07-23T02:51:27;14.00;;;9.30;;
70337;SDS011;57757;53.198;19.646;2022-07-23T02:53:54;15.10;;;9.70;;
70337;SDS011;57757;53.198;19.646;2022-07-23T02:56:22;18.50;;;10.30;;
70337;SDS011;57757;53.198;19.646;2022-07-23T02:58:50;16.40;;;10.80;;
70337;SDS011;57757;53.198;19.646;2022-07-23T03:01:17;16.70;;;9.90;;
70337;SDS011;57757;53.198;19.646;2022-07-23T03:03:47;15.20;;;9.80;;
70337;SDS011;57757;53.198;19.646;2022-07-23T03:06:15;15.40;;;10.30;;
70337;SDS011;57757;53.198;19.646;2022-07-23T03:08:42;16.70;;;10.00;;
70337;SDS011;57757;53.198;19.646;2022-07-23T03:11:10;15.90;;;10.00;;
70337;SDS011;57757;53.198;19.646;2022-07-23T03:13:43;15.40;;;10.40;;
70337;SDS011;57757;53.198;19.646;2022-07-23T03:16:11;16.40;;;10.00;;
70337;SDS011;57757;53.198;19.646;2022-07-23T03:18:38;14.50;;;9.90;;
70337;SDS011;57757;53.198;19.646;2022-07-23T03:21:07;16.30;;;10.60;;
70337;SDS011;57757;53.198;19.646;2022-07-23T03:23:35;16.00;;;11.00;;
70337;SDS011;57757;53.198;19.646;2022-07-23T03:26:03;16.00;;;10.20;;
70337;SDS011;57757;53.198;19.646;2022-07-23T03:28:30;16.00;;;10.50;;
70337;SDS011;57757;53.198;19.646;2022-07-23T03:30:58;19.20;;;10.70;;
70337;SDS011;57757;53.198;19.646;2022-07-23T03:33:26;15.50;;;10.80;;
70337;SDS011;57757;53.198;19.646;2022-07-23T03:35:53;16.20;;;11.00;;
70337;SDS011;57757;53.198;19.646;2022-07-23T03:38:21;16.90;;;10.90;;
70337;SDS011;57757;53.198;19.646;2022-07-23T03:40:50;17.80;;;10.90;;
70337;SDS011;57757;53.198;19.646;2022-07-23T03:43:17;17.50;;;11.50;;
70337;SDS011;57757;53.198;19.646;2022-07-23T03:45:45;16.50;;;11.20;;
70337;SDS011;57757;53.198;19.646;2022-07-23T03:48:12;14.70;;;10.30;;
70337;SDS011;57757;53.198;19.646;2022-07-23T03:50:40;17.90;;;11.40;;
70337;SDS011;57757;53.198;19.646;2022-07-23T03:53:07;18.10;;;11.80;;
70337;SDS011;57757;53.198;19.646;2022-07-23T03:55:35;17.20;;;10.90;;
70337;SDS011;57757;53.198;19.646;2022-07-23T03:58:02;18.20;;;11.60;;
70337;SDS011;57757;53.198;19.646;2022-07-23T04:00:30;19.10;;;11.30;;
70337;SDS011;57757;53.198;19.646;2022-07-23T04:02:57;16.70;;;11.10;;
70337;SDS011;57757;53.198;19.646;2022-07-23T04:05:25;18.00;;;11.70;;
70337;SDS011;57757;53.198;19.646;2022-07-23T04:07:52;16.50;;;10.90;;
70337;SDS011;57757;53.198;19.646;2022-07-23T04:10:20;16.80;;;11.20;;
70337;SDS011;57757;53.198;19.646;2022-07-23T04:12:47;17.20;;;11.70;;
70337;SDS011;57757;53.198;19.646;2022-07-23T04:15:15;17.10;;;11.60;;
70337;SDS011;57757;53.198;19.646;2022-07-23T04:17:42;18.60;;;12.40;;
70337;SDS011;57757;53.198;19.646;2022-07-23T04:20:11;18.20;;;11.30;;
70337;SDS011;57757;53.198;19.646;2022-07-23T04:22:38;17.40;;;11.10;;
70337;SDS011;57757;53.198;19.646;2022-07-23T04:25:06;17.40;;;11.30;;
70337;SDS011;57757;53.198;19.646;2022-07-23T04:27:34;17.30;;;11.70;;
70337;SDS011;57757;53.198;19.646;2022-07-23T04:30:01;16.40;;;11.10;;
70337;SDS011;57757;53.198;19.646;2022-07-23T04:32:29;17.10;;;11.10;;
70337;SDS011;57757;53.198;19.646;2022-07-23T04:34:57;16.80;;;11.30;;
70337;SDS011;57757;53.198;19.646;2022-07-23T04:37:24;16.80;;;11.30;;
70337;SDS011;57757;53.198;19.646;2022-07-23T04:39:52;15.80;;;10.70;;
70337;SDS011;57757;53.198;19.646;2022-07-23T04:42:19;17.40;;;12.10;;
70337;SDS011;57757;53.198;19.646;2022-07-23T04:44:47;21.90;;;12.10;;
70337;SDS011;57757;53.198;19.646;2022-07-23T04:47:14;17.80;;;11.60;;
70337;SDS011;57757;53.198;19.646;2022-07-23T04:49:42;17.70;;;11.10;;
70337;SDS011;57757;53.198;19.646;2022-07-23T04:52:09;16.90;;;11.90;;
70337;SDS011;57757;53.198;19.646;2022-07-23T04:54:37;19.60;;;12.10;;
70337;SDS011;57757;53.198;19.646;2022-07-23T04:57:04;18.80;;;12.30;;
70337;SDS011;57757;53.198;19.646;2022-07-23T04:59:32;19.60;;;12.60;;
70337;SDS011;57757;53.198;19.646;2022-07-23T05:01:59;18.10;;;12.50;;
70337;SDS011;57757;53.198;19.646;2022-07-23T05:04:27;19.60;;;12.60;;
70337;SDS011;57757;53.198;19.646;2022-07-23T05:06:54;19.50;;;11.90;;
70337;SDS011;57757;53.198;19.646;2022-07-23T05:09:22;17.00;;;11.60;;
70337;SDS011;57757;53.198;19.646;2022-07-23T05:11:49;18.20;;;12.30;;
70337;SDS011;57757;53.198;19.646;2022-07-23T05:14:17;18.70;;;12.30;;
70337;SDS011;57757;53.198;19.646;2022-07-23T05:16:45;18.00;;;12.60;;
70337;SDS011;57757;53.198;19.646;2022-07-23T05:19:12;18.60;;;12.50;;
70337;SDS011;57757;53.198;19.646;2022-07-23T05:21:41;20.10;;;12.40;;
70337;SDS011;57757;53.198;19.646;2022-07-23T05:24:09;19.90;;;12.70;;
70337;SDS011;57757;53.198;19.646;2022-07-23T05:26:48;18.30;;;11.40;;
70337;SDS011;57757;53.198;19.646;2022-07-23T05:29:16;17.80;;;11.70;;
70337;SDS011;57757;53.198;19.646;2022-07-23T05:31:44;19.00;;;12.50;;
70337;SDS011;57757;53.198;19.646;2022-07-23T05:34:12;18.70;;;12.00;;
70337;SDS011;57757;53.198;19.646;2022-07-23T05:36:44;18.20;;;12.20;;
70337;SDS011;57757;53.198;19.646;2022-07-23T05:39:11;18.20;;;12.10;;
70337;SDS011;57757;53.198;19.646;2022-07-23T05:41:39;18.40;;;11.50;;
70337;SDS011;57757;53.198;19.646;2022-07-23T05:44:06;18.70;;;12.00;;
70337;SDS011;57757;53.198;19.646;2022-07-23T05:46:34;16.40;;;11.70;;
70337;SDS011;57757;53.198;19.646;2022-07-23T05:49:02;17.70;;;12.20;;
70337;SDS011;57757;53.198;19.646;2022-07-23T05:51:30;16.20;;;11.00;;
70337;SDS011;57757;53.198;19.646;2022-07-23T05:53:58;15.50;;;11.00;;
70337;SDS011;57757;53.198;19.646;2022-07-23T05:56:25;15.20;;;10.50;;
70337;SDS011;57757;53.198;19.646;2022-07-23T05:58:53;21.30;;;11.50;;
70337;SDS011;57757;53.198;19.646;2022-07-23T06:01:20;15.70;;;11.00;;
70337;SDS011;57757;53.198;19.646;2022-07-23T06:03:48;16.80;;;11.10;;
70337;SDS011;57757;53.198;19.646;2022-07-23T06:06:15;15.30;;;11.20;;
70337;SDS011;57757;53.198;19.646;2022-07-23T06:08:43;14.60;;;10.70;;
70337;SDS011;57757;53.198;19.646;2022-07-23T06:11:11;16.90;;;11.00;;
70337;SDS011;57757;53.198;19.646;2022-07-23T06:13:38;15.90;;;10.60;;
70337;SDS011;57757;53.198;19.646;2022-07-23T06:16:06;16.80;;;10.80;;
70337;SDS011;57757;53.198;19.646;2022-07-23T06:18:33;16.60;;;10.30;;
70337;SDS011;57757;53.198;19.646;2022-07-23T06:21:01;17.50;;;10.40;;
70337;SDS011;57757;53.198;19.646;2022-07-23T06:23:32;16.10;;;10.40;;
70337;SDS011;57757;53.198;19.646;2022-07-23T06:25:59;13.60;;;9.20;;
70337;SDS011;57757;53.198;19.646;2022-07-23T06:28:26;16.70;;;10.50;;
70337;SDS011;57757;53.198;19.646;2022-07-23T06:30:54;15.40;;;10.50;;
70337;SDS011;57757;53.198;19.646;2022-07-23T06:33:24;15.90;;;10.70;;
70337;SDS011;57757;53.198;19.646;2022-07-23T06:35:51;14.90;;;10.40;;
70337;SDS011;57757;53.198;19.646;2022-07-23T06:38:19;18.50;;;10.50;;
70337;SDS011;57757;53.198;19.646;2022-07-23T06:40:47;15.70;;;10.10;;
70337;SDS011;57757;53.198;19.646;2022-07-23T06:43:14;16.10;;;10.30;;
70337;SDS011;57757;53.198;19.646;2022-07-23T06:45:42;15.00;;;11.00;;
70337;SDS011;57757;53.198;19.646;2022-07-23T06:48:09;16.20;;;11.20;;
70337;SDS011;57757;53.198;19.646;2022-07-23T06:50:37;17.40;;;10.00;;
70337;SDS011;57757;53.198;19.646;2022-07-23T06:53:04;14.80;;;10.60;;
70337;SDS011;57757;53.198;19.646;2022-07-23T06:55:32;14.90;;;10.30;;
70337;SDS011;57757;53.198;19.646;2022-07-23T06:58:02;15.30;;;10.50;;
70337;SDS011;57757;53.198;19.646;2022-07-23T07:00:30;17.40;;;10.00;;
70337;SDS011;57757;53.198;19.646;2022-07-23T07:02:58;16.30;;;10.00;;
70337;SDS011;57757;53.198;19.646;2022-07-23T07:05:26;14.70;;;10.30;;
70337;SDS011;57757;53.198;19.646;2022-07-23T07:07:54;16.20;;;10.40;;
70337;SDS011;57757;53.198;19.646;2022-07-23T07:10:22;13.60;;;8.90;;
70337;SDS011;57757;53.198;19.646;2022-07-23T07:12:50;16.20;;;10.50;;
70337;SDS011;57757;53.198;19.646;2022-07-23T07:15:17;13.40;;;9.20;;
70337;SDS011;57757;53.198;19.646;2022-07-23T07:17:45;15.10;;;9.70;;
70337;SDS011;57757;53.198;19.646;2022-07-23T07:20:12;15.90;;;8.80;;
70337;SDS011;57757;53.198;19.646;2022-07-23T07:22:40;12.30;;;8.20;;
70337;SDS011;57757;53.198;19.646;2022-07-23T07:25:07;12.60;;;8.50;;
70337;SDS011;57757;53.198;19.646;2022-07-23T07:27:35;13.10;;;8.80;;
70337;SDS011;57757;53.198;19.646;2022-07-23T07:30:04;15.30;;;9.40;;
70337;SDS011;57757;53.198;19.646;2022-07-23T07:32:33;12.20;;;8.10;;
70337;SDS011;57757;53.198;19.646;2022-07-23T07:35:20;14.60;;;8.30;;
70337;SDS011;57757;53.198;19.646;2022-07-23T07:37:48;11.00;;;7.30;;
70337;SDS011;57757;53.198;19.646;2022-07-23T07:40:15;12.10;;;7.40;;
70337;SDS011;57757;53.198;19.646;2022-07-23T07:42:46;11.30;;;7.20;;
70337;SDS011;57757;53.198;19.646;2022-07-23T07:45:15;9.90;;;5.90;;
70337;SDS011;57757;53.198;19.646;2022-07-23T07:47:43;7.90;;;4.10;;
70337;SDS011;57757;53.198;19.646;2022-07-23T07:50:10;8.10;;;4.80;;
70337;SDS011;57757;53.198;19.646;2022-07-23T07:52:38;8.60;;;4.40;;
70337;SDS011;57757;53.198;19.646;2022-07-23T07:55:07;9.50;;;4.30;;
70337;SDS011;57757;53.198;19.646;2022-07-23T07:57:36;7.90;;;3.90;;
70337;SDS011;57757;53.198;19.646;2022-07-23T08:00:05;6.80;;;3.50;;
70337;SDS011;57757;53.198;19.646;2022-07-23T08:05:23;8.80;;;3.60;;
70337;SDS011;57757;53.198;19.646;2022-07-23T08:07:55;7.70;;;3.40;;
70337;SDS011;57757;53.198;19.646;2022-07-23T08:10:24;7.20;;;3.10;;
70337;SDS011;57757;53.198;19.646;2022-07-23T08:12:53;8.20;;;3.60;;
70337;SDS011;57757;53.198;19.646;2022-07-23T08:15:24;7.60;;;3.30;;
70337;SDS011;57757;53.198;19.646;2022-07-23T08:17:53;6.30;;;3.20;;
70337;SDS011;57757;53.198;19.646;2022-07-23T08:20:22;7.70;;;3.50;;
70337;SDS011;57757;53.198;19.646;2022-07-23T08:22:53;6.60;;;3.40;;
70337;SDS011;57757;53.198;19.646;2022-07-23T08:25:23;7.10;;;3.70;;
70337;SDS011;57757;53.198;19.646;2022-07-23T08:27:54;7.00;;;3.80;;
70337;SDS011;57757;53.198;19.646;2022-07-23T08:30:23;7.20;;;3.70;;
70337;SDS011;57757;53.198;19.646;2022-07-23T08:35:28;8.60;;;3.80;;
70337;SDS011;57757;53.198;19.646;2022-07-23T08:37:59;7.70;;;4.00;;
70337;SDS011;57757;53.198;19.646;2022-07-23T08:40:29;6.70;;;3.60;;
70337;SDS011;57757;53.198;19.646;2022-07-23T08:42:58;9.20;;;4.30;;
70337;SDS011;57757;53.198;19.646;2022-07-23T08:45:27;7.70;;;3.50;;
70337;SDS011;57757;53.198;19.646;2022-07-23T08:47:55;6.60;;;3.40;;
70337;SDS011;57757;53.198;19.646;2022-07-23T08:50:27;7.10;;;3.80;;
70337;SDS011;57757;53.198;19.646;2022-07-23T08:52:54;7.50;;;3.30;;
70337;SDS011;57757;53.198;19.646;2022-07-23T08:55:23;8.60;;;3.70;;
70337;SDS011;57757;53.198;19.646;2022-07-23T08:57:51;7.30;;;3.60;;
70337;SDS011;57757;53.198;19.646;2022-07-23T09:00:21;7.80;;;3.60;;
70337;SDS011;57757;53.198;19.646;2022-07-23T09:02:49;7.50;;;3.70;;
70337;SDS011;57757;53.198;19.646;2022-07-23T09:05:18;7.40;;;3.60;;
70337;SDS011;57757;53.198;19.646;2022-07-23T09:10:40;8.90;;;3.90;;
70337;SDS011;57757;53.198;19.646;2022-07-23T09:15:58;7.00;;;3.80;;
70337;SDS011;57757;53.198;19.646;2022-07-23T09:18:48;7.70;;;4.10;;
70337;SDS011;57757;53.198;19.646;2022-07-23T09:21:21;8.60;;;4.20;;
70337;SDS011;57757;53.198;19.646;2022-07-23T09:26:31;7.70;;;4.30;;
70337;SDS011;57757;53.198;19.646;2022-07-23T09:31:33;10.60;;;4.70;;
70337;SDS011;57757;53.198;19.646;2022-07-23T09:34:21;7.30;;;3.80;;
70337;SDS011;57757;53.198;19.646;2022-07-23T09:36:53;8.40;;;4.30;;
70337;SDS011;57757;53.198;19.646;2022-07-23T09:39:26;7.40;;;4.10;;
70337;SDS011;57757;53.198;19.646;2022-07-23T09:41:57;7.50;;;4.20;;
70337;SDS011;57757;53.198;19.646;2022-07-23T09:44:25;7.80;;;4.60;;
70337;SDS011;57757;53.198;19.646;2022-07-23T09:46:57;9.60;;;4.30;;
70337;SDS011;57757;53.198;19.646;2022-07-23T09:49:27;8.30;;;4.40;;
70337;SDS011;57757;53.198;19.646;2022-07-23T09:51:57;8.10;;;4.10;;
70337;SDS011;57757;53.198;19.646;2022-07-23T09:54:30;7.50;;;4.30;;
70337;SDS011;57757;53.198;19.646;2022-07-23T09:56:59;11.40;;;4.90;;
70337;SDS011;57757;53.198;19.646;2022-07-23T09:59:30;7.40;;;4.20;;
70337;SDS011;57757;53.198;19.646;2022-07-23T10:02:00;7.10;;;4.40;;
70337;SDS011;57757;53.198;19.646;2022-07-23T10:04:29;8.10;;;4.20;;
70337;SDS011;57757;53.198;19.646;2022-07-23T10:07:01;7.80;;;3.90;;
70337;SDS011;57757;53.198;19.646;2022-07-23T10:09:31;11.20;;;4.30;;
70337;SDS011;57757;53.198;19.646;2022-07-23T10:12:02;9.90;;;4.90;;
70337;SDS011;57757;53.198;19.646;2022-07-23T10:14:34;7.60;;;4.20;;
70337;SDS011;57757;53.198;19.646;2022-07-23T10:17:02;7.30;;;4.60;;
70337;SDS011;57757;53.198;19.646;2022-07-23T10:19:31;7.40;;;4.60;;
70337;SDS011;57757;53.198;19.646;2022-07-23T10:22:00;7.60;;;4.50;;
70337;SDS011;57757;53.198;19.646;2022-07-23T10:30:05;9.20;;;4.70;;
70337;SDS011;57757;53.198;19.646;2022-07-23T10:40:57;8.70;;;4.50;;
70337;SDS011;57757;53.198;19.646;2022-07-23T10:43:30;7.80;;;4.60;;
70337;SDS011;57757;53.198;19.646;2022-07-23T10:54:41;10.70;;;4.90;;
70337;SDS011;57757;53.198;19.646;2022-07-23T10:57:10;8.10;;;4.30;;
70337;SDS011;57757;53.198;19.646;2022-07-23T11:02:58;8.60;;;5.00;;
70337;SDS011;57757;53.198;19.646;2022-07-23T11:08:20;9.10;;;5.20;;
70337;SDS011;57757;53.198;19.646;2022-07-23T11:10:50;10.80;;;5.70;;
70337;SDS011;57757;53.198;19.646;2022-07-23T11:13:41;9.10;;;5.40;;
70337;SDS011;57757;53.198;19.646;2022-07-23T11:16:12;8.50;;;5.00;;
70337;SDS011;57757;53.198;19.646;2022-07-23T11:18:56;10.30;;;6.70;;
70337;SDS011;57757;53.198;19.646;2022-07-23T11:24:05;8.80;;;5.40;;
70337;SDS011;57757;53.198;19.646;2022-07-23T11:31:56;8.10;;;5.40;;
70337;SDS011;57757;53.198;19.646;2022-07-23T11:34:47;8.10;;;5.30;;
70337;SDS011;57757;53.198;19.646;2022-07-23T11:40:10;9.80;;;5.60;;
70337;SDS011;57757;53.198;19.646;2022-07-23T11:42:40;10.30;;;5.00;;
70337;SDS011;57757;53.198;19.646;2022-07-23T11:45:22;8.80;;;5.10;;
70337;SDS011;57757;53.198;19.646;2022-07-23T11:47:52;8.50;;;5.10;;
70337;SDS011;57757;53.198;19.646;2022-07-23T11:50:22;11.20;;;6.00;;
70337;SDS011;57757;53.198;19.646;2022-07-23T11:52:52;8.80;;;5.00;;
70337;SDS011;57757;53.198;19.646;2022-07-23T11:55:20;9.10;;;5.00;;
70337;SDS011;57757;53.198;19.646;2022-07-23T11:57:50;8.70;;;4.70;;
70337;SDS011;57757;53.198;19.646;2022-07-23T12:00:20;10.80;;;4.70;;
70337;SDS011;57757;53.198;19.646;2022-07-23T12:02:52;7.80;;;4.50;;
70337;SDS011;57757;53.198;19.646;2022-07-23T12:05:22;8.70;;;4.70;;
70337;SDS011;57757;53.198;19.646;2022-07-23T12:07:52;12.50;;;5.40;;
70337;SDS011;57757;53.198;19.646;2022-07-23T12:12:57;8.70;;;4.60;;
70337;SDS011;57757;53.198;19.646;2022-07-23T12:15:27;9.20;;;5.20;;
70337;SDS011;57757;53.198;19.646;2022-07-23T12:18:00;7.80;;;4.70;;
70337;SDS011;57757;53.198;19.646;2022-07-23T12:20:32;10.20;;;5.10;;
70337;SDS011;57757;53.198;19.646;2022-07-23T12:23:04;9.10;;;4.90;;
70337;SDS011;57757;53.198;19.646;2022-07-23T12:25:42;9.90;;;5.30;;
70337;SDS011;57757;53.198;19.646;2022-07-23T12:28:16;11.20;;;6.40;;
70337;SDS011;57757;53.198;19.646;2022-07-23T12:31:05;11.50;;;5.20;;
70337;SDS011;57757;53.198;19.646;2022-07-23T12:33:33;12.90;;;6.30;;
70337;SDS011;57757;53.198;19.646;2022-07-23T12:36:05;16.10;;;5.60;;
70337;SDS011;57757;53.198;19.646;2022-07-23T12:38:41;13.50;;;6.10;;
70337;SDS011;57757;53.198;19.646;2022-07-23T12:41:18;12.90;;;6.10;;
70337;SDS011;57757;53.198;19.646;2022-07-23T12:43:46;11.20;;;6.30;;
70337;SDS011;57757;53.198;19.646;2022-07-23T12:46:14;10.40;;;6.50;;
70337;SDS011;57757;53.198;19.646;2022-07-23T12:51:23;12.00;;;6.60;;
70337;SDS011;57757;53.198;19.646;2022-07-23T12:56:44;12.30;;;6.70;;
70337;SDS011;57757;53.198;19.646;2022-07-23T12:59:32;10.40;;;6.40;;
70337;SDS011;57757;53.198;19.646;2022-07-23T13:02:00;10.20;;;6.80;;
70337;SDS011;57757;53.198;19.646;2022-07-23T13:04:29;14.60;;;8.90;;
70337;SDS011;57757;53.198;19.646;2022-07-23T13:06:59;10.20;;;6.50;;
70337;SDS011;57757;53.198;19.646;2022-07-23T13:09:32;14.20;;;7.40;;
70337;SDS011;57757;53.198;19.646;2022-07-23T13:12:09;10.60;;;7.10;;
70337;SDS011;57757;53.198;19.646;2022-07-23T13:14:38;12.50;;;7.60;;
70337;SDS011;57757;53.198;19.646;2022-07-23T13:17:06;12.50;;;7.50;;
70337;SDS011;57757;53.198;19.646;2022-07-23T13:19:34;12.00;;;7.50;;
70337;SDS011;57757;53.198;19.646;2022-07-23T13:22:01;11.70;;;7.90;;
70337;SDS011;57757;53.198;19.646;2022-07-23T13:24:36;10.80;;;7.40;;
70337;SDS011;57757;53.198;19.646;2022-07-23T13:27:06;12.60;;;7.60;;
70337;SDS011;57757;53.198;19.646;2022-07-23T13:29:56;13.50;;;8.30;;
70337;SDS011;57757;53.198;19.646;2022-07-23T13:32:24;11.90;;;8.10;;
70337;SDS011;57757;53.198;19.646;2022-07-23T13:34:51;12.80;;;8.40;;
70337;SDS011;57757;53.198;19.646;2022-07-23T13:37:19;12.00;;;8.50;;
70337;SDS011;57757;53.198;19.646;2022-07-23T13:39:48;14.00;;;8.90;;
70337;SDS011;57757;53.198;19.646;2022-07-23T13:42:15;15.60;;;8.80;;
70337;SDS011;57757;53.198;19.646;2022-07-23T13:44:43;13.80;;;8.00;;
70337;SDS011;57757;53.198;19.646;2022-07-23T13:47:11;15.20;;;8.90;;
70337;SDS011;57757;53.198;19.646;2022-07-23T13:49:39;13.90;;;8.00;;
70337;SDS011;57757;53.198;19.646;2022-07-23T13:52:06;16.00;;;10.20;;
70337;SDS011;57757;53.198;19.646;2022-07-23T13:54:35;13.70;;;8.80;;
70337;SDS011;57757;53.198;19.646;2022-07-23T13:57:03;13.00;;;8.80;;
70337;SDS011;57757;53.198;19.646;2022-07-23T13:59:32;14.30;;;9.00;;
70337;SDS011;57757;53.198;19.646;2022-07-23T14:02:01;15.40;;;9.20;;
70337;SDS011;57757;53.198;19.646;2022-07-23T14:04:47;13.20;;;8.50;;
70337;SDS011;57757;53.198;19.646;2022-07-23T14:07:15;13.00;;;9.20;;
70337;SDS011;57757;53.198;19.646;2022-07-23T14:09:43;14.10;;;9.10;;
70337;SDS011;57757;53.198;19.646;2022-07-23T14:12:11;14.20;;;9.20;;
70337;SDS011;57757;53.198;19.646;2022-07-23T14:14:38;15.50;;;9.80;;
70337;SDS011;57757;53.198;19.646;2022-07-23T14:17:06;13.80;;;9.70;;
70337;SDS011;57757;53.198;19.646;2022-07-23T14:19:38;14.50;;;9.40;;
70337;SDS011;57757;53.198;19.646;2022-07-23T14:22:05;14.70;;;9.20;;
70337;SDS011;57757;53.198;19.646;2022-07-23T14:24:33;13.00;;;10.00;;
70337;SDS011;57757;53.198;19.646;2022-07-23T14:27:02;13.10;;;10.10;;
70337;SDS011;57757;53.198;19.646;2022-07-23T14:29:32;15.60;;;10.40;;
70337;SDS011;57757;53.198;19.646;2022-07-23T14:32:02;13.80;;;9.70;;
70337;SDS011;57757;53.198;19.646;2022-07-23T14:34:30;15.50;;;9.50;;
70337;SDS011;57757;53.198;19.646;2022-07-23T14:36:57;16.50;;;9.70;;
70337;SDS011;57757;53.198;19.646;2022-07-23T14:39:27;15.70;;;10.70;;
70337;SDS011;57757;53.198;19.646;2022-07-23T14:41:55;14.80;;;10.10;;
70337;SDS011;57757;53.198;19.646;2022-07-23T14:44:22;15.90;;;11.30;;
70337;SDS011;57757;53.198;19.646;2022-07-23T14:46:50;17.20;;;10.90;;
70337;SDS011;57757;53.198;19.646;2022-07-23T14:49:17;16.60;;;11.60;;
70337;SDS011;57757;53.198;19.646;2022-07-23T14:51:46;17.80;;;11.10;;
70337;SDS011;57757;53.198;19.646;2022-07-23T14:54:13;17.70;;;11.40;;
70337;SDS011;57757;53.198;19.646;2022-07-23T14:56:41;16.90;;;11.70;;
70337;SDS011;57757;53.198;19.646;2022-07-23T14:59:09;16.80;;;12.00;;
70337;SDS011;57757;53.198;19.646;2022-07-23T15:01:37;15.90;;;11.60;;
70337;SDS011;57757;53.198;19.646;2022-07-23T15:04:05;16.60;;;11.90;;
70337;SDS011;57757;53.198;19.646;2022-07-23T15:06:53;22.50;;;11.80;;
70337;SDS011;57757;53.198;19.646;2022-07-23T15:09:21;15.80;;;12.00;;
70337;SDS011;57757;53.198;19.646;2022-07-23T15:11:50;16.50;;;11.70;;
70337;SDS011;57757;53.198;19.646;2022-07-23T15:14:17;18.30;;;11.90;;
70337;SDS011;57757;53.198;19.646;2022-07-23T15:17:05;18.10;;;12.40;;
70337;SDS011;57757;53.198;19.646;2022-07-23T15:19:33;16.90;;;11.90;;
70337;SDS011;57757;53.198;19.646;2022-07-23T15:22:01;16.80;;;12.40;;
70337;SDS011;57757;53.198;19.646;2022-07-23T15:24:29;18.00;;;12.40;;
70337;SDS011;57757;53.198;19.646;2022-07-23T15:26:58;17.00;;;11.90;;
70337;SDS011;57757;53.198;19.646;2022-07-23T15:29:26;15.40;;;11.20;;
70337;SDS011;57757;53.198;19.646;2022-07-23T15:31:55;15.30;;;11.30;;
70337;SDS011;57757;53.198;19.646;2022-07-23T15:34:25;23.50;;;13.70;;